This is the latest recevied weather packets stored in our database for station/object KF0FSA. If no packets are shown the sender has not sent any weather packets the latest 1 day(s).
| Time | Temp. | Humidity | Pressure | Rain* | Wind** | Luminosity | Snow |
|---|---|---|---|---|---|---|---|
| 1778055898 | 0° C | 70% | 962.4 hPa | 0 mm | - | 0 W/m² | - |
| 1778055599 | -0.56° C | 72% | 962.5 hPa | 0 mm | - | 0 W/m² | - |
| 1778055298 | -0.56° C | 73% | 962.5 hPa | 0 mm | - | 0 W/m² | - |
| 1778054995 | 0° C | 73% | 962.4 hPa | 0 mm | - | 0 W/m² | - |
| 1778054699 | 0° C | 73% | 962.3 hPa | 0 mm | - | 0 W/m² | - |
| 1778054220 | 0.56° C | 71% | 962.2 hPa | 0 mm | - | 0 W/m² | - |
| 1778053920 | 0.56° C | 71% | 962.2 hPa | 0 mm | - | 0 W/m² | - |
| 1778053495 | 0.56° C | 70% | 962.1 hPa | 0 mm | - | 0 W/m² | - |
| 1778052596 | 1.11° C | 67% | 962 hPa | 0 mm | - | 0 W/m² | - |
| 1778052294 | 1.67° C | 67% | 961.9 hPa | 0 mm | - | 0 W/m² | - |
| 1778051993 | 1.67° C | 67% | 961.9 hPa | 0 mm | - | 0 W/m² | - |
| 1778051518 | 1.67° C | 67% | 962 hPa | 0 mm | - | 0 W/m² | - |
| 1778050793 | 1.67° C | 67% | 962.2 hPa | 0 mm | - | 0 W/m² | - |
| 1778050494 | 1.67° C | 66% | 962 hPa | 0 mm | - | 0 W/m² | - |
| 1778050194 | 1.67° C | 65% | 961.9 hPa | 0 mm | - | 0 W/m² | - |
| 1778049894 | 1.67° C | 66% | 961.8 hPa | 0 mm | - | 0 W/m² | - |
| 1778049296 | 1.11° C | 65% | 961.9 hPa | 0 mm | - | 0 W/m² | - |
| 1778048094 | 1.11° C | 66% | 962.5 hPa | 0 mm | - | 0 W/m² | - |
| 1778047794 | 1.11° C | 65% | 962.4 hPa | 0 mm | - | 0 W/m² | - |
| 1778047495 | 1.11° C | 64% | 962.2 hPa | 0 mm | - | 0 W/m² | - |
| 1778047015 | 1.11° C | 66% | 962.2 hPa | 0 mm | - | 0 W/m² | - |
| 1778045988 | 1.67° C | 65% | 962.2 hPa | 0 mm | - | 0 W/m² | - |
| 1778045688 | 1.67° C | 64% | 962.2 hPa | 0 mm | - | 0 W/m² | - |
| 1778045389 | 2.22° C | 63% | 962.1 hPa | 0 mm | - | 0 W/m² | - |
| 1778044785 | 2.78° C | 60% | 961.9 hPa | 0 mm | - | 0 W/m² | - |
* Rain latest hour (hover to see other rain measurements)
** Current wind speed in m/s (hover to see current wind gust speed)